Etusivu
METAR-TAF:

METAR-TAF

Lentoasemat :

Belgrad, Serbia

Belgradin Nikola Teslan lentoasema

Leveyspiiri: 44-49N, Pituuspiiri: 020-17E, korkeus merenpinnasta: 96 m

Tämänhetkinen sää

Tämä raportti tehtiin 24 minuuttia sitten, kello 23.30 UTC
Tuuli 2 kn etelästä
Lämpötila 10°C
Kosteus 76%
Ilmanpaine 1022 hPa
Näkyvyys 10 km tai enemmän
ei pilviä alle 1500 m:ssä eikä cumulonimbus-pilviä

METAR: LYBE 202330Z 17002KT CAVOK 10/06 Q1022 NOSIG

Aika: 01:54 (23:54 UTC)

Sääennuste

Tämä raportti tehtiin 54 minuuttia sitten, kello 23.00 UTC
Ennuste voimassa 21. päivästä klo 00 UTC - 21. päivään klo 24 UTC
Tuuli 6 kn lännestä/lounaasta
Näkyvyys 10 km tai enemmän
ei pilviä alle 1500 m:ssä eikä cumulonimbus-pilviä

TAF: LYBE 202300Z 2100/2124 24006KT CAVOK TX23/2113Z TN09/2104Z

Säähavainnot ja -ennusteet yli 4000 lentoasemalta (METAR- ja TAF-raportit).

Käytössä olevat sääasemat on merkitty karttaan keltaisilla ja punaisilla pisteillä.

Aseta hiiri pisteen päälle nähdäksesi sääaseman nimen.

Klikkaa sitten nähdäksesi säähavainnot ja -ennusteet.

Kartan vaihtaminen: klikkaa mustalla rastilla varustettuja vihreitä pisteitä, niin voit zoomata sisään; viivalla varustettua vihreää pistettä, niin voit zoomata ulos tai vihreitä nuolia, niin pääset viereisille kartoille.


METAR-TAF: